Cedro, Brazil
Current Conditions -  °F | °C
As of 12:00 PM on Friday 19 Dec 2014 (Local Time) from SBJU Reporting Station
Few Clouds Few Clouds  
Wind Chill: 91°   Ceiling: Unl
Heat Index: 97°   Visibility: 6mi
Dew Point: 70°   Wind: 7mph
Humidity: 49%   Direction: 100°E
Pressure: 29.97"   Gusts: NA
Location:  6.61°S, 39.06°W
Report Text: SBJU 191500Z 10006KT 9999 FEW022 33/21 Q1015
Loading
Personal Weather Stations






























Interactive Weather Map New forecast layout! Learn more

10-Day Weather Forecast

Advertisements
Track Severe Weather on mobile